createdAt,value
2019-05-01T00:01:42.121Z,31.63
2019-05-01T00:04:25.079Z,27.33
2019-05-01T00:06:56.165Z,31.20
2019-05-01T00:09:25.767Z,29.33
2019-05-01T00:11:55.388Z,28.00
2019-05-01T00:14:24.549Z,30.20
2019-05-01T00:16:54.102Z,27.90
2019-05-01T00:19:23.587Z,32.20
2019-05-01T00:21:52.830Z,28.27
2019-05-01T00:24:22.237Z,31.23
2019-05-01T00:26:51.634Z,30.93
2019-05-01T00:29:21.351Z,33.20
2019-05-01T00:31:50.570Z,27.83
2019-05-01T00:34:19.750Z,28.47
2019-05-01T00:36:49.206Z,30.33
2019-05-01T00:39:18.696Z,27.87
2019-05-01T00:41:48.119Z,26.77
2019-05-01T00:44:17.540Z,29.53
2019-05-01T00:46:46.693Z,27.50
2019-05-01T00:49:16.761Z,30.57
2019-05-01T00:51:46.234Z,28.17
2019-05-01T00:54:15.638Z,27.00
2019-05-01T00:56:49.289Z,25.47
2019-05-01T00:59:23.104Z,26.50
2019-05-01T01:02:10.192Z,29.30
2019-05-01T01:04:39.680Z,28.67
2019-05-01T01:07:09.126Z,28.93
2019-05-01T01:09:38.548Z,23.17
2019-05-01T01:12:07.964Z,25.17
2019-05-01T01:14:37.114Z,27.27
2019-05-01T01:17:06.518Z,27.20
2019-05-01T01:19:35.956Z,27.80
2019-05-01T01:22:05.464Z,24.93
2019-05-01T01:24:34.665Z,27.90
2019-05-01T01:27:03.901Z,28.83
2019-05-01T01:29:33.414Z,27.20
2019-05-01T01:32:02.861Z,31.00
2019-05-01T01:34:32.258Z,26.83
2019-05-01T01:37:01.740Z,26.47
2019-05-01T01:39:31.226Z,25.73
2019-05-01T01:42:00.701Z,30.43
2019-05-01T01:44:31.798Z,33.70
2019-05-01T01:47:02.369Z,29.97
2019-05-01T01:49:31.605Z,30.00
2019-05-01T01:52:01.235Z,30.80
2019-05-01T01:54:30.410Z,30.83
2019-05-01T01:56:59.880Z,32.77
2019-05-01T01:59:29.813Z,28.70
2019-05-01T02:02:05.977Z,32.17
2019-05-01T02:04:45.986Z,32.73
2019-05-01T02:07:15.446Z,31.83
2019-05-01T02:09:44.938Z,29.80
2019-05-01T02:12:14.976Z,33.93
2019-05-01T02:14:44.458Z,33.83
2019-05-01T02:17:13.867Z,38.50
2019-05-01T02:19:43.050Z,37.87
2019-05-01T02:22:12.669Z,36.10
2019-05-01T02:24:42.114Z,37.83
2019-05-01T02:27:13.331Z,38.03
2019-05-01T02:29:47.905Z,33.50
2019-05-01T02:32:18.459Z,35.63
2019-05-01T02:34:48.816Z,32.63
2019-05-01T02:37:20.127Z,36.47
2019-05-01T02:39:50.285Z,37.27
2019-05-01T02:42:21.333Z,34.40
2019-05-01T02:44:53.364Z,32.10
2019-05-01T02:47:30.709Z,31.80
2019-05-01T02:50:10.149Z,34.30
2019-05-01T02:52:41.407Z,33.47
2019-05-01T02:55:16.098Z,29.67
2019-05-01T02:57:47.019Z,30.30
2019-05-01T03:00:18.243Z,30.67
2019-05-01T03:02:48.034Z,35.10
2019-05-01T03:05:17.506Z,29.23
2019-05-01T03:07:47.180Z,27.17
2019-05-01T03:10:17.424Z,30.03
2019-05-01T03:12:48.921Z,27.87
2019-05-01T03:15:20.777Z,27.50
2019-05-01T03:17:52.696Z,29.23
2019-05-01T03:20:39.279Z,27.63
2019-05-01T03:23:13.724Z,26.53
2019-05-01T03:25:44.380Z,27.87
2019-05-01T03:28:13.738Z,25.27
2019-05-01T03:30:43.360Z,28.83
2019-05-01T03:33:12.982Z,25.40
2019-05-01T03:35:43.126Z,26.83
2019-05-01T03:38:12.961Z,27.67
2019-05-01T03:40:42.438Z,26.30
2019-05-01T03:43:13.010Z,27.37
2019-05-01T03:45:42.489Z,24.47
2019-05-01T03:48:11.966Z,24.83
2019-05-01T03:50:41.206Z,24.93
2019-05-01T03:53:11.134Z,27.63
2019-05-01T03:55:40.323Z,32.77
2019-05-01T03:58:09.823Z,25.67
2019-05-01T04:00:40.756Z,30.17
2019-05-01T04:03:18.044Z,38.30
2019-05-01T04:05:47.297Z,28.07
2019-05-01T04:08:18.056Z,26.93
2019-05-01T04:10:48.645Z,28.63
2019-05-01T04:13:18.228Z,29.77
2019-05-01T04:15:47.632Z,28.17
2019-05-01T04:18:16.986Z,29.30
2019-05-01T04:20:46.632Z,27.57
2019-05-01T04:23:16.424Z,28.27
2019-05-01T04:25:46.072Z,30.07
2019-05-01T04:28:35.539Z,27.43
2019-05-01T04:31:16.061Z,30.10
2019-05-01T04:33:47.537Z,28.67
2019-05-01T04:36:34.637Z,29.37
2019-05-01T04:39:06.353Z,26.80
2019-05-01T04:41:36.522Z,27.03
2019-05-01T04:44:06.269Z,28.20
2019-05-01T04:46:36.144Z,28.33
2019-05-01T04:49:05.771Z,30.20
2019-05-01T04:51:35.959Z,28.03
2019-05-01T04:54:06.021Z,29.70
2019-05-01T04:56:35.355Z,30.77
2019-05-01T04:59:04.982Z,32.40
2019-05-01T05:01:57.013Z,31.53
2019-05-01T05:04:26.013Z,32.17
2019-05-01T05:06:55.604Z,33.37
2019-05-01T05:09:39.711Z,31.40
2019-05-01T05:12:17.911Z,29.17
2019-05-01T05:15:00.950Z,31.80
2019-05-01T05:17:30.627Z,31.50
2019-05-01T05:20:00.281Z,32.00
2019-05-01T05:22:29.426Z,32.00
2019-05-01T05:24:58.795Z,29.03
2019-05-01T05:27:29.653Z,34.40
2019-05-01T05:29:58.864Z,31.53
2019-05-01T05:32:31.076Z,32.37
2019-05-01T05:35:00.913Z,34.97
2019-05-01T05:37:39.435Z,34.17
2019-05-01T05:40:09.074Z,31.00
2019-05-01T05:42:39.396Z,33.93
2019-05-01T05:45:09.061Z,31.27
2019-05-01T05:47:38.816Z,30.87
2019-05-01T05:50:10.192Z,30.03
2019-05-01T05:52:42.899Z,36.73
2019-05-01T05:55:19.910Z,30.47
2019-05-01T05:57:57.736Z,33.53
2019-05-01T06:00:44.029Z,33.80
2019-05-01T06:03:35.112Z,33.77
2019-05-01T06:06:08.043Z,33.03
2019-05-01T06:08:41.603Z,32.60
2019-05-01T06:11:15.635Z,34.40
2019-05-01T06:14:02.844Z,30.00
2019-05-01T06:16:51.921Z,32.53
2019-05-01T06:19:20.987Z,32.23
2019-05-01T06:21:52.823Z,32.63
2019-05-01T06:24:23.721Z,29.13
2019-05-01T06:26:53.211Z,31.07
2019-05-01T06:29:22.913Z,32.13
2019-05-01T06:31:53.977Z,30.37
2019-05-01T06:34:28.773Z,30.13
2019-05-01T06:36:56.235Z,33.80
2019-05-01T06:39:25.733Z,25.47
2019-05-01T06:41:55.712Z,27.90
2019-05-01T06:44:43.739Z,26.47
2019-05-01T06:47:14.840Z,27.83
2019-05-01T06:50:06.080Z,30.23
2019-05-01T06:52:35.607Z,29.40
2019-05-01T06:55:06.155Z,25.57
2019-05-01T06:57:38.270Z,30.37
2019-05-01T07:00:10.036Z,27.47
2019-05-01T07:02:40.593Z,31.80
2019-05-01T07:05:14.699Z,32.97
2019-05-01T07:07:43.255Z,28.00
2019-05-01T07:10:12.917Z,32.23
2019-05-01T07:12:43.096Z,28.63
2019-05-01T07:15:13.076Z,28.70
2019-05-01T07:17:43.849Z,28.13
2019-05-01T07:20:31.973Z,26.60
2019-05-01T07:23:01.402Z,26.90
2019-05-01T07:25:34.963Z,28.60
2019-05-01T07:28:02.495Z,27.17
2019-05-01T07:30:41.472Z,27.33
2019-05-01T07:33:12.133Z,27.50
2019-05-01T07:35:42.635Z,28.80
2019-05-01T07:38:12.207Z,28.73
2019-05-01T07:40:42.083Z,25.47
2019-05-01T07:43:29.250Z,29.37
2019-05-01T07:46:02.285Z,28.57
2019-05-01T07:48:36.133Z,31.90
2019-05-01T07:51:06.955Z,28.47
2019-05-01T07:53:37.027Z,25.67
2019-05-01T07:56:06.564Z,27.07
2019-05-01T07:58:35.929Z,31.07
2019-05-01T08:01:18.422Z,30.37
2019-05-01T08:03:47.074Z,30.50
2019-05-01T08:06:21.340Z,28.97
2019-05-01T08:08:47.615Z,30.77
2019-05-01T08:11:17.038Z,30.73
2019-05-01T08:13:46.451Z,27.60
2019-05-01T08:16:15.864Z,29.63
2019-05-01T08:18:49.357Z,29.50
2019-05-01T08:21:35.596Z,32.20
2019-05-01T08:24:05.139Z,31.47
2019-05-01T08:26:34.551Z,35.47
2019-05-01T08:29:22.032Z,37.17
2019-05-01T08:31:58.822Z,35.27
2019-05-01T08:34:34.771Z,33.87
2019-05-01T08:37:06.483Z,37.53
2019-05-01T08:39:35.333Z,39.77
2019-05-01T08:42:07.067Z,36.67
2019-05-01T08:44:53.484Z,41.00
2019-05-01T08:47:25.824Z,44.33
2019-05-01T08:49:57.171Z,42.73
2019-05-01T08:52:26.660Z,47.47
2019-05-01T08:54:56.281Z,47.87
2019-05-01T08:57:29.239Z,42.97
2019-05-01T09:00:00.306Z,44.90
2019-05-01T09:02:26.972Z,38.33
2019-05-01T09:05:02.575Z,40.40
2019-05-01T09:07:27.447Z,40.37
2019-05-01T09:09:56.822Z,39.30
2019-05-01T09:12:26.182Z,41.77
2019-05-01T09:14:55.587Z,39.63
2019-05-01T09:17:24.974Z,43.33
2019-05-01T09:19:54.337Z,48.73
2019-05-01T09:22:23.712Z,41.43
2019-05-01T09:24:52.928Z,37.40
2019-05-01T09:27:29.439Z,41.53
2019-05-01T09:29:56.524Z,42.83
2019-05-01T09:32:26.078Z,37.93
2019-05-01T09:34:58.204Z,40.53
2019-05-01T09:37:26.587Z,35.73
2019-05-01T09:39:55.926Z,41.77
2019-05-01T09:42:25.462Z,38.03
2019-05-01T09:44:54.557Z,37.67
2019-05-01T09:47:23.914Z,35.97
2019-05-01T09:49:54.004Z,36.43
2019-05-01T09:52:41.100Z,36.20
2019-05-01T09:55:17.811Z,32.67
2019-05-01T09:57:45.306Z,33.70
2019-05-01T10:00:16.032Z,33.60
2019-05-01T10:02:45.209Z,34.60
2019-05-01T10:05:14.323Z,32.37
2019-05-01T10:07:43.678Z,32.60
2019-05-01T10:10:12.854Z,25.30
2019-05-01T10:12:47.002Z,23.63
2019-05-01T10:15:13.425Z,23.73
2019-05-01T10:17:42.760Z,22.20
2019-05-01T10:20:12.202Z,21.33
2019-05-01T10:22:41.567Z,21.73
2019-05-01T10:25:12.415Z,22.93
2019-05-01T10:27:46.105Z,20.83
2019-05-01T10:30:36.023Z,22.33
2019-05-01T10:33:04.419Z,20.67
2019-05-01T10:35:42.375Z,23.00
2019-05-01T10:38:09.324Z,24.27
2019-05-01T10:40:37.970Z,24.23
2019-05-01T10:43:07.073Z,40.00
2019-05-01T10:45:36.193Z,29.43
2019-05-01T10:48:05.304Z,27.80
2019-05-01T10:50:34.816Z,28.00
2019-05-01T10:53:03.921Z,25.50
2019-05-01T10:55:33.297Z,26.63
2019-05-01T10:58:03.371Z,27.87
2019-05-01T11:00:33.559Z,25.60
2019-05-01T11:03:02.989Z,25.07
2019-05-01T11:05:32.353Z,26.10
2019-05-01T11:08:01.482Z,24.00
2019-05-01T11:10:30.832Z,27.57
2019-05-01T11:12:59.962Z,25.97
2019-05-01T11:15:29.309Z,23.40
2019-05-01T11:17:58.432Z,23.77
2019-05-01T11:20:27.850Z,26.37
2019-05-01T11:22:56.939Z,18.00
2019-05-01T11:25:26.308Z,21.00
2019-05-01T11:27:55.815Z,22.87
2019-05-01T11:30:24.900Z,21.20
2019-05-01T11:32:58.320Z,16.90
2019-05-01T11:35:45.628Z,19.00
2019-05-01T11:38:28.266Z,21.63
2019-05-01T11:40:59.268Z,22.63
2019-05-01T11:43:28.347Z,16.90
2019-05-01T11:45:57.721Z,23.83
2019-05-01T11:48:30.258Z,20.10
2019-05-01T11:50:57.562Z,24.30
2019-05-01T11:53:26.931Z,21.70
2019-05-01T11:55:56.274Z,20.37
2019-05-01T11:58:25.349Z,19.40
2019-05-01T12:00:56.368Z,18.80
2019-05-01T12:03:25.732Z,16.50
2019-05-01T12:05:54.870Z,20.50
2019-05-01T12:08:24.212Z,22.20
2019-05-01T12:10:53.607Z,21.90
2019-05-01T12:13:22.664Z,19.30
2019-05-01T12:15:53.688Z,22.67
2019-05-01T12:18:23.046Z,18.10
2019-05-01T12:20:52.131Z,17.80
2019-05-01T12:23:21.530Z,19.47
2019-05-01T12:25:50.852Z,16.40
2019-05-01T12:28:20.190Z,16.90
2019-05-01T12:30:49.342Z,16.00
2019-05-01T12:33:18.659Z,17.43
2019-05-01T12:35:49.651Z,11.67
2019-05-01T12:38:19.012Z,14.23
2019-05-01T12:41:06.242Z,18.37
2019-05-01T12:43:35.574Z,12.80
2019-05-01T12:46:04.883Z,13.20
2019-05-01T12:48:34.242Z,14.33
2019-05-01T12:51:03.438Z,12.37
2019-05-01T12:53:34.417Z,13.73
2019-05-01T12:56:05.152Z,12.07
2019-05-01T12:58:34.771Z,13.70
2019-05-01T13:01:04.281Z,12.37
2019-05-01T13:03:33.637Z,13.00
2019-05-01T13:06:02.997Z,13.23
2019-05-01T13:08:32.351Z,12.03
2019-05-01T13:11:02.163Z,12.40
2019-05-01T13:13:31.502Z,15.10
2019-05-01T13:16:00.711Z,15.63
2019-05-01T13:18:30.050Z,13.90
2019-05-01T13:20:59.150Z,16.20
2019-05-01T13:23:28.515Z,12.50
2019-05-01T13:25:59.286Z,13.40
2019-05-01T13:28:30.297Z,13.70
2019-05-01T13:31:10.111Z,17.77
2019-05-01T13:33:39.440Z,14.30
2019-05-01T13:36:08.869Z,17.60
2019-05-01T13:38:38.229Z,17.93
2019-05-01T13:41:07.421Z,19.07
2019-05-01T13:43:36.832Z,15.77
2019-05-01T13:46:06.195Z,15.07
2019-05-01T13:48:35.301Z,15.53
2019-05-01T13:51:04.783Z,16.73
2019-05-01T13:53:33.871Z,15.17
2019-05-01T13:56:03.606Z,15.00
2019-05-01T13:58:32.696Z,13.20
2019-05-01T14:01:01.815Z,12.67
2019-05-01T14:03:30.929Z,16.30
2019-05-01T14:06:00.265Z,11.40
2019-05-01T14:08:29.604Z,12.90
2019-05-01T14:10:58.966Z,12.20
2019-05-01T14:13:28.082Z,12.53
2019-05-01T14:15:57.162Z,11.33
2019-05-01T14:18:26.286Z,11.17
2019-05-01T14:20:59.998Z,11.80
2019-05-01T14:23:31.020Z,11.27
2019-05-01T14:26:04.394Z,10.63
2019-05-01T14:28:36.423Z,9.63
2019-05-01T14:31:06.148Z,10.10
2019-05-01T14:33:35.533Z,13.17
2019-05-01T14:36:05.003Z,11.93
2019-05-01T14:38:34.448Z,10.40
2019-05-01T14:41:03.522Z,12.43
2019-05-01T14:43:32.909Z,12.97
2019-05-01T14:46:02.406Z,10.43
2019-05-01T14:48:31.602Z,9.90
2019-05-01T14:51:00.984Z,11.53
2019-05-01T14:53:30.424Z,12.00
2019-05-01T14:55:59.694Z,9.03
2019-05-01T14:58:29.149Z,10.17
2019-05-01T15:00:58.433Z,10.70
2019-05-01T15:03:28.041Z,10.03
2019-05-01T15:05:57.445Z,12.10
2019-05-01T15:08:26.639Z,11.67
2019-05-01T15:10:56.058Z,11.57
2019-05-01T15:13:32.638Z,14.13
2019-05-01T15:16:02.688Z,9.67
2019-05-01T15:18:36.494Z,11.97
2019-05-01T15:21:05.964Z,10.87
2019-05-01T15:23:35.364Z,10.93
2019-05-01T15:26:04.935Z,15.27
2019-05-01T15:28:34.416Z,12.10
2019-05-01T15:31:03.980Z,9.13
2019-05-01T15:33:33.410Z,10.40
2019-05-01T15:36:02.605Z,9.07
2019-05-01T15:38:31.764Z,11.30
2019-05-01T15:41:05.539Z,10.47
2019-05-01T15:43:39.493Z,8.43
2019-05-01T15:46:09.924Z,8.80
2019-05-01T15:48:39.308Z,8.37
2019-05-01T15:51:08.721Z,8.53
2019-05-01T15:53:37.921Z,8.20
2019-05-01T15:56:07.318Z,8.67
2019-05-01T15:58:36.790Z,8.77
2019-05-01T16:01:06.405Z,12.73
2019-05-01T16:03:35.831Z,12.53
2019-05-01T16:06:08.252Z,9.90
2019-05-01T16:08:36.257Z,12.77
2019-05-01T16:11:23.195Z,10.23
2019-05-01T16:13:52.593Z,8.40
2019-05-01T16:16:22.117Z,10.53
2019-05-01T16:18:51.609Z,7.93
2019-05-01T16:21:21.016Z,10.77
2019-05-01T16:23:50.485Z,10.03
2019-05-01T16:26:19.693Z,7.27
2019-05-01T16:28:49.099Z,9.63
2019-05-01T16:31:18.309Z,9.93
2019-05-01T16:33:47.776Z,8.43
2019-05-01T16:36:20.236Z,10.77
2019-05-01T16:38:50.388Z,10.60
2019-05-01T16:41:19.804Z,9.63
2019-05-01T16:43:49.206Z,12.17
2019-05-01T16:46:18.668Z,9.13
2019-05-01T16:48:48.095Z,9.77
2019-05-01T16:51:17.408Z,11.53
2019-05-01T16:53:46.611Z,9.87
2019-05-01T16:56:15.857Z,9.40
2019-05-01T16:58:45.056Z,9.33
2019-05-01T17:01:15.854Z,12.10
2019-05-01T17:03:56.034Z,10.37
2019-05-01T17:06:26.863Z,10.70
2019-05-01T17:08:58.253Z,20.97
2019-05-01T17:11:29.769Z,11.17
2019-05-01T17:13:59.221Z,14.93
2019-05-01T17:16:28.508Z,10.27
2019-05-01T17:18:57.982Z,10.70
2019-05-01T17:21:27.446Z,12.17
2019-05-01T17:23:56.974Z,10.30
2019-05-01T17:26:26.452Z,11.97
2019-05-01T17:28:55.643Z,12.57
2019-05-01T17:31:26.461Z,12.97
2019-05-01T17:33:56.878Z,12.43
2019-05-01T17:36:26.339Z,12.60
2019-05-01T17:38:55.858Z,15.83
2019-05-01T17:41:27.166Z,10.97
2019-05-01T17:43:56.818Z,12.53
2019-05-01T17:46:26.568Z,11.83
2019-05-01T17:48:56.356Z,17.80
2019-05-01T17:51:25.607Z,12.33
2019-05-01T17:53:54.732Z,12.27
2019-05-01T17:56:28.325Z,13.20
2019-05-01T17:58:55.806Z,16.33
2019-05-01T18:01:34.234Z,14.50
2019-05-01T18:04:10.606Z,16.57
2019-05-01T18:06:41.878Z,14.87
2019-05-01T18:09:13.402Z,14.10
2019-05-01T18:11:47.174Z,12.93
2019-05-01T18:14:13.761Z,13.30
2019-05-01T18:16:43.017Z,17.87
2019-05-01T18:19:15.162Z,13.23
2019-05-01T18:21:46.701Z,13.17
2019-05-01T18:24:24.680Z,12.07
2019-05-01T18:26:55.870Z,12.67
2019-05-01T18:29:29.197Z,15.10
2019-05-01T18:31:58.666Z,12.97
2019-05-01T18:34:33.729Z,14.07
2019-05-01T18:37:19.998Z,12.73
2019-05-01T18:39:49.760Z,14.07
2019-05-01T18:42:18.934Z,16.17
2019-05-01T18:44:48.889Z,17.00
2019-05-01T18:47:19.262Z,20.43
2019-05-01T18:49:48.536Z,21.37
2019-05-01T18:52:17.688Z,15.23
2019-05-01T18:54:47.088Z,14.67
2019-05-01T18:57:16.350Z,15.33
2019-05-01T18:59:45.763Z,15.97
2019-05-01T19:02:15.053Z,14.70
2019-05-01T19:04:44.465Z,16.20
2019-05-01T19:07:14.031Z,17.90
2019-05-01T19:09:43.454Z,14.20
2019-05-01T19:12:13.387Z,15.13
2019-05-01T19:14:42.810Z,17.30
2019-05-01T19:17:12.374Z,13.87
2019-05-01T19:19:41.779Z,15.77
2019-05-01T19:22:11.130Z,15.93
2019-05-01T19:24:40.322Z,17.07
2019-05-01T19:27:09.477Z,14.40
2019-05-01T19:29:38.709Z,14.43
2019-05-01T19:32:08.249Z,17.10
2019-05-01T19:34:37.984Z,16.90
2019-05-01T19:37:07.563Z,15.97
2019-05-01T19:39:43.875Z,14.60
2019-05-01T19:42:08.120Z,15.67
2019-05-01T19:44:37.736Z,13.87
2019-05-01T19:47:09.764Z,15.20
2019-05-01T19:49:39.139Z,14.87
2019-05-01T19:52:08.652Z,14.83
2019-05-01T19:54:37.850Z,15.97
2019-05-01T19:57:07.041Z,16.20
2019-05-01T19:59:36.241Z,16.00
2019-05-01T20:02:07.366Z,17.23
2019-05-01T20:04:36.820Z,16.43
2019-05-01T20:07:10.549Z,18.33
2019-05-01T20:09:37.489Z,19.33
2019-05-01T20:12:07.270Z,18.67
2019-05-01T20:14:37.030Z,18.10
2019-05-01T20:17:10.147Z,23.37
2019-05-01T20:19:37.444Z,18.10
2019-05-01T20:22:06.676Z,23.20
2019-05-01T20:24:39.782Z,22.70
2019-05-01T20:27:06.742Z,18.77
2019-05-01T20:29:36.806Z,20.73
2019-05-01T20:32:06.317Z,19.23
2019-05-01T20:34:35.750Z,20.37
2019-05-01T20:37:05.355Z,22.77
2019-05-01T20:39:34.513Z,20.90
2019-05-01T20:42:03.791Z,24.47
2019-05-01T20:44:33.201Z,21.73
2019-05-01T20:47:03.798Z,20.30
2019-05-01T20:49:36.461Z,24.63
2019-05-01T20:52:03.884Z,22.60
2019-05-01T20:54:33.272Z,22.53
2019-05-01T20:57:04.067Z,21.73
2019-05-01T20:59:35.281Z,21.40
2019-05-01T21:02:08.150Z,23.07
2019-05-01T21:04:51.785Z,22.13
2019-05-01T21:07:34.829Z,21.03
2019-05-01T21:10:06.258Z,21.57
2019-05-01T21:12:35.875Z,21.87
2019-05-01T21:15:08.156Z,20.50
2019-05-01T21:17:37.582Z,24.67
2019-05-01T21:20:06.843Z,23.87
2019-05-01T21:22:35.991Z,20.83
2019-05-01T21:25:06.307Z,26.73
2019-05-01T21:27:35.461Z,23.27
2019-05-01T21:30:07.644Z,25.77
2019-05-01T21:32:37.058Z,24.03
2019-05-01T21:35:06.704Z,24.23
2019-05-01T21:37:36.124Z,25.63
2019-05-01T21:40:07.384Z,29.70
2019-05-01T21:42:36.782Z,27.17
2019-05-01T21:45:06.892Z,27.07
2019-05-01T21:47:36.331Z,27.50
2019-05-01T21:50:05.619Z,29.97
2019-05-01T21:52:35.087Z,28.90
2019-05-01T21:55:05.729Z,32.07
2019-05-01T21:57:38.723Z,28.47
2019-05-01T22:00:10.986Z,26.27
2019-05-01T22:02:45.961Z,27.77
2019-05-01T22:05:12.674Z,29.03
2019-05-01T22:07:41.856Z,25.73
2019-05-01T22:10:11.074Z,28.33
2019-05-01T22:12:43.843Z,32.03
2019-05-01T22:15:15.081Z,26.73
2019-05-01T22:17:51.852Z,28.43
2019-05-01T22:20:22.663Z,30.70
2019-05-01T22:22:53.763Z,32.47
2019-05-01T22:25:24.823Z,30.90
2019-05-01T22:27:58.434Z,30.87
2019-05-01T22:30:29.285Z,34.87
2019-05-01T22:33:00.201Z,28.93
2019-05-01T22:35:31.120Z,29.93
2019-05-01T22:38:00.581Z,31.53
2019-05-01T22:40:47.899Z,31.40
2019-05-01T22:43:17.290Z,32.37
2019-05-01T22:45:46.858Z,31.43
2019-05-01T22:48:16.354Z,30.63
2019-05-01T22:50:46.476Z,33.77
2019-05-01T22:53:15.869Z,33.60
2019-05-01T22:55:45.290Z,28.57
2019-05-01T22:58:14.647Z,30.13
2019-05-01T23:00:45.862Z,30.03
2019-05-01T23:03:28.546Z,31.73
2019-05-01T23:06:01.973Z,32.93
2019-05-01T23:08:29.301Z,32.50
2019-05-01T23:10:59.420Z,32.03
2019-05-01T23:13:28.604Z,34.90
2019-05-01T23:15:58.296Z,32.70
2019-05-01T23:18:27.829Z,37.27
2019-05-01T23:20:57.020Z,33.20
2019-05-01T23:23:26.524Z,34.60
2019-05-01T23:25:55.756Z,30.77
2019-05-01T23:28:25.229Z,35.77
2019-05-01T23:30:54.545Z,37.23
2019-05-01T23:33:23.679Z,35.33
2019-05-01T23:35:53.076Z,34.37
2019-05-01T23:38:22.274Z,34.10
2019-05-01T23:40:52.989Z,32.87
2019-05-01T23:43:23.021Z,32.87
2019-05-01T23:45:53.756Z,36.47
2019-05-01T23:48:23.241Z,31.73
2019-05-01T23:50:52.649Z,35.50
2019-05-01T23:53:22.351Z,34.00
2019-05-01T23:55:54.623Z,33.73
2019-05-01T23:58:22.574Z,36.10
